Time,TemperatureF,DewpointF,PressureIn,WindDirection,WindDirectionDegrees,WindSpeedMPH,WindSpeedGustMPH,Humidity,HourlyPrecipIn,Conditions,Clouds,dailyrainin,SoftwareType,DateUTC
2013-03-17 00:03:00,56.0,54.0,30.14,West,265,0.0,3.0,92,0.00,,,0.00,,2013-03-17 04:03:00,
2013-03-17 00:13:00,56.0,54.0,30.14,West,265,0.0,3.0,92,0.00,,,0.00,,2013-03-17 04:13:00,
2013-03-17 00:23:00,54.0,52.0,30.14,West,265,0.0,0.0,92,0.00,,,0.00,,2013-03-17 04:23:00,
2013-03-17 00:33:00,53.0,51.0,30.14,West,265,0.0,1.0,93,0.00,,,0.00,,2013-03-17 04:33:00,
2013-03-17 00:43:00,53.0,51.0,30.14,West,265,0.0,1.0,93,0.00,,,0.00,,2013-03-17 04:43:00,
2013-03-17 00:53:00,52.0,50.0,30.14,West,265,0.0,0.0,94,0.00,,,0.00,,2013-03-17 04:53:00,
2013-03-17 01:03:00,51.0,50.0,30.13,West,265,0.0,0.0,95,0.00,,,0.00,,2013-03-17 05:03:00,
2013-03-17 01:12:00,51.0,50.0,30.13,West,265,0.0,0.0,95,0.00,,,0.00,,2013-03-17 05:12:00,
2013-03-17 01:22:00,51.0,50.0,30.13,West,265,0.0,0.0,95,0.00,,,0.00,,2013-03-17 05:22:00,
2013-03-17 01:32:00,50.0,49.0,30.13,West,265,0.0,0.0,95,0.00,,,0.00,,2013-03-17 05:32:00,
2013-03-17 01:42:00,50.0,49.0,30.13,West,265,0.0,0.0,95,0.00,,,0.00,,2013-03-17 05:42:00,
2013-03-17 01:52:00,50.0,49.0,30.12,West,265,0.0,1.0,95,0.00,,,0.00,,2013-03-17 05:52:00,
2013-03-17 02:02:00,50.0,49.0,30.11,West,265,0.0,1.0,95,0.00,,,0.00,,2013-03-17 06:02:00,
2013-03-17 02:12:00,50.0,49.0,30.11,West,265,0.0,1.0,95,0.00,,,0.00,,2013-03-17 06:12:00,
2013-03-17 02:22:00,50.0,49.0,30.11,West,265,0.0,1.0,96,0.00,,,0.00,,2013-03-17 06:22:00,
2013-03-17 02:32:00,49.0,48.0,30.11,West,265,0.0,1.0,95,0.00,,,0.00,,2013-03-17 06:32:00,
2013-03-17 02:42:00,49.0,48.0,30.11,West,265,0.0,1.0,95,0.00,,,0.00,,2013-03-17 06:42:00,
2013-03-17 02:52:00,50.0,49.0,30.11,West,265,0.0,0.0,96,0.00,,,0.00,,2013-03-17 06:52:00,
2013-03-17 03:02:00,49.0,48.0,30.11,West,265,0.0,0.0,96,0.00,,,0.00,,2013-03-17 07:02:00,
2013-03-17 03:12:00,49.0,48.0,30.11,West,265,0.0,0.0,96,0.00,,,0.00,,2013-03-17 07:12:00,
2013-03-17 03:22:00,48.0,47.0,30.11,West,265,0.0,0.0,96,0.00,,,0.00,,2013-03-17 07:22:00,
2013-03-17 03:32:00,48.0,47.0,30.11,West,265,0.0,1.0,96,0.00,,,0.00,,2013-03-17 07:32:00,
2013-03-17 03:42:00,48.0,47.0,30.11,West,265,0.0,1.0,96,0.00,,,0.00,,2013-03-17 07:42:00,
2013-03-17 03:52:00,48.0,47.0,30.11,West,265,0.0,2.0,96,0.00,,,0.00,,2013-03-17 07:52:00,
2013-03-17 04:03:00,48.0,47.0,30.11,SSW,213,0.0,2.0,96,0.00,,,0.00,,2013-03-17 08:03:00,
2013-03-17 04:13:00,49.0,48.0,30.10,SSW,213,0.0,0.0,96,0.00,,,0.00,,2013-03-17 08:13:00,
2013-03-17 04:22:00,49.0,48.0,30.10,SSW,213,0.0,0.0,96,0.00,,,0.00,,2013-03-17 08:22:00,
2013-03-17 04:33:00,48.0,47.0,30.10,SSW,213,0.0,0.0,96,0.00,,,0.00,,2013-03-17 08:33:00,
2013-03-17 04:42:00,48.0,47.0,30.10,SSW,213,0.0,0.0,96,0.00,,,0.00,,2013-03-17 08:42:00,
2013-03-17 04:52:00,48.0,47.0,30.10,SSW,213,0.0,0.0,96,0.00,,,0.00,,2013-03-17 08:52:00,
2013-03-17 05:03:00,48.0,47.0,30.09,SSW,213,0.0,1.0,96,0.00,,,0.00,,2013-03-17 09:03:00,
2013-03-17 05:13:00,48.0,47.0,30.09,SSW,213,0.0,1.0,96,0.00,,,0.00,,2013-03-17 09:13:00,
2013-03-17 05:22:00,48.0,47.0,30.09,SSE,148,0.0,2.0,97,0.00,,,0.00,,2013-03-17 09:22:00,
2013-03-17 05:32:00,48.0,47.0,30.09,SSE,148,0.0,0.0,97,0.00,,,0.00,,2013-03-17 09:32:00,
2013-03-17 05:43:00,48.0,47.0,30.09,SSE,148,0.0,0.0,97,0.00,,,0.00,,2013-03-17 09:43:00,
2013-03-17 05:53:00,47.0,46.0,30.09,SSE,148,0.0,1.0,97,0.00,,,0.00,,2013-03-17 09:53:00,
2013-03-17 06:03:00,48.0,47.0,30.09,SSE,148,0.0,1.0,97,0.00,,,0.00,,2013-03-17 10:03:00,
2013-03-17 06:13:00,48.0,47.0,30.09,SSE,148,0.0,1.0,97,0.00,,,0.00,,2013-03-17 10:13:00,
2013-03-17 06:23:00,48.0,47.0,30.10,SSE,148,0.0,0.0,97,0.00,,,0.00,,2013-03-17 10:23:00,
2013-03-17 06:33:00,48.0,47.0,30.11,SSE,148,0.0,1.0,97,0.00,,,0.00,,2013-03-17 10:33:00,
2013-03-17 06:42:00,48.0,47.0,30.11,SSE,148,0.0,1.0,97,0.00,,,0.00,,2013-03-17 10:42:00,
2013-03-17 06:52:00,48.0,47.0,30.11,SSE,148,0.0,0.0,97,0.00,,,0.00,,2013-03-17 10:52:00,
2013-03-17 07:03:00,48.0,47.0,30.12,SSE,148,0.0,0.0,97,0.00,,,0.00,,2013-03-17 11:03:00,
2013-03-17 07:12:00,48.0,47.0,30.12,SSE,148,0.0,0.0,97,0.00,,,0.00,,2013-03-17 11:12:00,
2013-03-17 07:22:00,48.0,47.0,30.12,SE,137,1.0,5.0,97,0.00,,,0.00,,2013-03-17 11:22:00,
2013-03-17 07:32:00,50.0,49.0,30.13,SE,146,0.0,2.0,97,0.00,,,0.00,,2013-03-17 11:32:00,
2013-03-17 07:42:00,50.0,49.0,30.13,SE,146,0.0,2.0,97,0.00,,,0.00,,2013-03-17 11:42:00,
2013-03-17 07:52:00,51.0,50.0,30.13,SE,146,0.0,2.0,97,0.00,,,0.00,,2013-03-17 11:52:00,
2013-03-17 08:02:00,51.0,50.0,30.14,SE,145,0.0,2.0,97,0.00,,,0.00,,2013-03-17 12:02:00,
2013-03-17 08:12:00,51.0,50.0,30.14,SE,145,0.0,2.0,97,0.00,,,0.00,,2013-03-17 12:12:00,
2013-03-17 08:22:00,52.0,51.0,30.14,SE,145,0.0,2.0,97,0.00,,,0.00,,2013-03-17 12:22:00,
2013-03-17 08:33:00,52.0,51.0,30.14,East,101,1.0,3.0,97,0.00,,,0.00,,2013-03-17 12:33:00,
2013-03-17 08:43:00,52.0,51.0,30.14,East,101,1.0,3.0,97,0.00,,,0.00,,2013-03-17 12:43:00,
2013-03-17 08:52:00,53.0,52.0,30.15,ESE,102,0.0,1.0,97,0.00,,,0.00,,2013-03-17 12:52:00,
2013-03-17 09:02:00,55.0,54.0,30.15,ESE,110,1.0,3.0,97,0.00,,,0.00,,2013-03-17 13:02:00,
2013-03-17 09:13:00,55.0,54.0,30.15,ESE,110,1.0,3.0,97,0.00,,,0.00,,2013-03-17 13:13:00,
2013-03-17 09:22:00,57.0,56.0,30.15,SE,126,1.0,4.0,96,0.00,,,0.00,,2013-03-17 13:22:00,
2013-03-17 09:32:00,59.0,56.0,30.15,SE,133,2.0,4.0,89,0.00,,,0.00,,2013-03-17 13:32:00,
2013-03-17 09:42:00,59.0,56.0,30.15,SE,133,2.0,4.0,89,0.00,,,0.00,,2013-03-17 13:42:00,
2013-03-17 09:52:00,59.0,55.0,30.15,SE,133,0.0,2.0,86,0.00,,,0.00,,2013-03-17 13:52:00,
2013-03-17 10:02:00,61.0,55.0,30.15,ENE,73,0.0,3.0,80,0.00,,,0.00,,2013-03-17 14:02:00,
2013-03-17 10:12:00,61.0,55.0,30.15,ENE,73,0.0,3.0,80,0.00,,,0.00,,2013-03-17 14:12:00,
2013-03-17 10:22:00,64.0,55.0,30.16,ESE,108,2.0,4.0,72,0.00,,,0.00,,2013-03-17 14:22:00,
2013-03-17 10:33:00,67.0,56.0,30.15,SE,136,2.0,6.0,69,0.00,,,0.00,,2013-03-17 14:33:00,
2013-03-17 10:42:00,67.0,56.0,30.15,SE,136,2.0,6.0,69,0.00,,,0.00,,2013-03-17 14:42:00,
2013-03-17 10:52:00,69.0,56.0,30.15,SE,134,4.0,9.0,63,0.00,,,0.00,,2013-03-17 14:52:00,
2013-03-17 11:02:00,71.0,57.0,30.15,SE,142,4.0,9.0,62,0.00,,,0.00,,2013-03-17 15:02:00,
2013-03-17 11:12:00,71.0,57.0,30.15,SE,142,4.0,9.0,62,0.00,,,0.00,,2013-03-17 15:12:00,
2013-03-17 11:23:00,72.0,56.0,30.15,SE,130,5.0,11.0,58,0.00,,,0.00,,2013-03-17 15:23:00,
2013-03-17 11:33:00,72.0,55.0,30.16,SSW,205,1.0,9.0,56,0.00,,,0.00,,2013-03-17 15:33:00,
2013-03-17 11:43:00,72.0,55.0,30.16,SSW,205,1.0,9.0,56,0.00,,,0.00,,2013-03-17 15:43:00,
2013-03-17 11:53:00,73.0,57.0,30.16,East,90,3.0,11.0,57,0.00,,,0.00,,2013-03-17 15:53:00,
2013-03-17 12:03:00,74.0,58.0,30.17,SSW,205,4.0,12.0,57,0.00,,,0.00,,2013-03-17 16:03:00,
2013-03-17 12:13:00,74.0,58.0,30.17,SSW,205,4.0,12.0,57,0.00,,,0.00,,2013-03-17 16:13:00,
2013-03-17 12:23:00,73.0,57.0,30.16,SSE,148,3.0,9.0,57,0.00,,,0.00,,2013-03-17 16:23:00,
2013-03-17 12:33:00,74.0,57.0,30.15,South,180,2.0,9.0,56,0.00,,,0.00,,2013-03-17 16:33:00,
2013-03-17 12:43:00,74.0,57.0,30.15,South,180,2.0,9.0,56,0.00,,,0.00,,2013-03-17 16:43:00,
2013-03-17 12:52:00,75.0,57.0,30.15,SE,132,2.0,8.0,54,0.00,,,0.00,,2013-03-17 16:52:00,
2013-03-17 13:03:00,78.0,58.0,30.14,SSE,148,2.0,8.0,50,0.00,,,0.00,,2013-03-17 17:03:00,
2013-03-17 13:12:00,78.0,58.0,30.14,SSE,148,2.0,8.0,50,0.00,,,0.00,,2013-03-17 17:12:00,
2013-03-17 13:22:00,74.0,56.0,30.13,South,182,3.0,9.0,54,0.00,,,0.00,,2013-03-17 17:22:00,
2013-03-17 13:33:00,78.0,58.0,30.13,SSE,163,3.0,15.0,50,0.01,,,0.01,,2013-03-17 17:33:00,
2013-03-17 13:42:00,78.0,58.0,30.13,SSE,163,3.0,15.0,50,0.01,,,0.01,,2013-03-17 17:42:00,
2013-03-17 13:52:00,76.0,57.0,30.12,SSW,213,4.0,11.0,51,0.01,,,0.01,,2013-03-17 17:52:00,
2013-03-17 14:02:00,76.0,56.0,30.12,SSW,196,2.0,9.0,50,0.01,,,0.01,,2013-03-17 18:02:00,
2013-03-17 14:12:00,76.0,56.0,30.12,SSW,196,2.0,9.0,50,0.01,,,0.01,,2013-03-17 18:12:00,
2013-03-17 14:22:00,76.0,57.0,30.11,South,180,4.0,9.0,51,0.01,,,0.01,,2013-03-17 18:22:00,
2013-03-17 14:32:00,76.0,58.0,30.10,SSE,160,1.0,9.0,53,0.00,,,0.01,,2013-03-17 18:32:00,
2013-03-17 14:42:00,76.0,58.0,30.10,SSE,160,1.0,9.0,53,0.00,,,0.01,,2013-03-17 18:42:00,
2013-03-17 14:52:00,77.0,56.0,30.09,SW,218,2.0,13.0,49,0.00,,,0.01,,2013-03-17 18:52:00,
2013-03-17 15:02:00,77.0,56.0,30.08,South,175,3.0,10.0,49,0.00,,,0.01,,2013-03-17 19:02:00,
2013-03-17 15:12:00,77.0,56.0,30.08,South,175,3.0,10.0,49,0.00,,,0.01,,2013-03-17 19:12:00,
2013-03-17 15:22:00,78.0,57.0,30.08,SSW,193,3.0,12.0,48,0.00,,,0.01,,2013-03-17 19:22:00,
2013-03-17 15:33:00,79.0,58.0,30.07,SE,137,3.0,10.0,48,0.00,,,0.01,,2013-03-17 19:33:00,
2013-03-17 15:42:00,79.0,58.0,30.07,SE,137,3.0,10.0,48,0.00,,,0.01,,2013-03-17 19:42:00,
2013-03-17 15:53:00,79.0,58.0,30.06,ESE,121,2.0,7.0,48,0.00,,,0.01,,2013-03-17 19:53:00,
2013-03-17 16:02:00,77.0,56.0,30.06,SSW,211,2.0,9.0,49,0.00,,,0.01,,2013-03-17 20:02:00,
2013-03-17 16:12:00,77.0,56.0,30.06,SSW,211,2.0,9.0,49,0.00,,,0.01,,2013-03-17 20:12:00,
2013-03-17 16:22:00,77.0,56.0,30.06,SW,233,3.0,7.0,48,0.00,,,0.01,,2013-03-17 20:22:00,
2013-03-17 16:33:00,77.0,56.0,30.05,SW,225,4.0,11.0,49,0.00,,,0.01,,2013-03-17 20:33:00,
2013-03-17 16:42:00,77.0,56.0,30.05,SW,225,4.0,11.0,49,0.00,,,0.01,,2013-03-17 20:42:00,
2013-03-17 16:52:00,78.0,58.0,30.04,SSW,195,2.0,10.0,50,0.00,,,0.01,,2013-03-17 20:52:00,
2013-03-17 17:03:00,77.0,57.0,30.04,South,189,2.0,7.0,51,0.00,,,0.01,,2013-03-17 21:03:00,
2013-03-17 17:12:00,77.0,57.0,30.04,South,189,2.0,7.0,51,0.00,,,0.01,,2013-03-17 21:12:00,
2013-03-17 17:23:00,76.0,57.0,30.03,South,184,1.0,5.0,52,0.00,,,0.01,,2013-03-17 21:23:00,
2013-03-17 17:33:00,75.0,57.0,30.03,SSE,158,2.0,7.0,54,0.00,,,0.01,,2013-03-17 21:33:00,
2013-03-17 17:43:00,75.0,57.0,30.03,SSE,158,2.0,7.0,54,0.00,,,0.01,,2013-03-17 21:43:00,
2013-03-17 17:52:00,74.0,57.0,30.02,South,172,1.0,8.0,55,0.00,,,0.01,,2013-03-17 21:52:00,
2013-03-17 18:03:00,74.0,57.0,30.03,SSE,147,1.0,6.0,56,0.00,,,0.01,,2013-03-17 22:03:00,
2013-03-17 18:13:00,74.0,58.0,30.03,South,190,1.0,5.0,58,0.00,,,0.01,,2013-03-17 22:13:00,
2013-03-17 18:23:00,74.0,58.0,30.03,South,190,1.0,5.0,58,0.00,,,0.01,,2013-03-17 22:23:00,
2013-03-17 18:33:00,74.0,57.0,30.03,SSW,211,1.0,7.0,56,0.00,,,0.01,,2013-03-17 22:33:00,
2013-03-17 18:42:00,74.0,57.0,30.03,SSW,211,1.0,7.0,56,0.00,,,0.01,,2013-03-17 22:42:00,
2013-03-17 18:52:00,74.0,57.0,30.03,SSW,211,1.0,5.0,56,0.00,,,0.01,,2013-03-17 22:52:00,
2013-03-17 19:03:00,74.0,57.0,30.03,SSW,211,1.0,5.0,56,0.00,,,0.01,,2013-03-17 23:03:00,
2013-03-17 19:12:00,74.0,57.0,30.03,SSW,211,1.0,5.0,56,0.00,,,0.01,,2013-03-17 23:12:00,
2013-03-17 19:22:00,73.0,58.0,30.03,WSW,249,0.0,5.0,59,0.00,,,0.01,,2013-03-17 23:22:00,
2013-03-17 19:33:00,72.0,58.0,30.03,SW,228,0.0,3.0,61,0.00,,,0.01,,2013-03-17 23:33:00,
2013-03-17 19:43:00,72.0,58.0,30.03,SW,228,0.0,3.0,61,0.00,,,0.01,,2013-03-17 23:43:00,
2013-03-17 19:52:00,71.0,58.0,30.03,SW,228,0.0,1.0,64,0.00,,,0.01,,2013-03-17 23:52:00,
2013-03-17 20:03:00,70.0,58.0,30.03,SW,227,0.0,2.0,66,0.00,,,0.01,,2013-03-18 00:03:00,
2013-03-17 20:13:00,70.0,58.0,30.03,SW,227,0.0,2.0,66,0.00,,,0.01,,2013-03-18 00:13:00,
2013-03-17 20:22:00,69.0,58.0,30.04,WSW,254,0.0,3.0,68,0.00,,,0.01,,2013-03-18 00:22:00,
2013-03-17 20:33:00,69.0,59.0,30.03,WSW,254,0.0,1.0,70,0.00,,,0.01,,2013-03-18 00:33:00,
2013-03-17 20:42:00,69.0,59.0,30.03,WSW,254,0.0,1.0,70,0.00,,,0.01,,2013-03-18 00:42:00,
2013-03-17 20:52:00,67.0,58.0,30.03,WSW,254,0.0,0.0,74,0.00,,,0.01,,2013-03-18 00:52:00,
2013-03-17 21:02:00,67.0,59.0,30.04,WSW,254,0.0,0.0,76,0.00,,,0.01,,2013-03-18 01:02:00,
2013-03-17 21:12:00,67.0,59.0,30.04,WSW,254,0.0,0.0,76,0.00,,,0.01,,2013-03-18 01:12:00,
2013-03-17 21:22:00,66.0,59.0,30.04,WSW,254,0.0,0.0,78,0.00,,,0.01,,2013-03-18 01:22:00,
2013-03-17 21:33:00,65.0,59.0,30.05,WSW,254,0.0,1.0,80,0.00,,,0.01,,2013-03-18 01:33:00,
2013-03-17 21:42:00,65.0,59.0,30.05,WSW,254,0.0,1.0,80,0.00,,,0.01,,2013-03-18 01:42:00,
2013-03-17 21:52:00,65.0,59.0,30.05,WSW,254,0.0,1.0,82,0.00,,,0.01,,2013-03-18 01:52:00,
2013-03-17 22:02:00,64.0,58.0,30.06,WSW,254,0.0,0.0,82,0.00,,,0.01,,2013-03-18 02:02:00,
2013-03-17 22:12:00,64.0,58.0,30.06,WSW,254,0.0,0.0,82,0.00,,,0.01,,2013-03-18 02:12:00,
2013-03-17 22:22:00,64.0,58.0,30.05,WSW,254,0.0,0.0,82,0.00,,,0.01,,2013-03-18 02:22:00,
2013-03-17 22:32:00,63.0,58.0,30.06,NW,313,0.0,2.0,84,0.00,,,0.01,,2013-03-18 02:32:00,
2013-03-17 22:42:00,63.0,58.0,30.06,NW,313,0.0,2.0,84,0.00,,,0.01,,2013-03-18 02:42:00,
2013-03-17 22:52:00,62.0,58.0,30.06,NW,313,0.0,0.0,86,0.00,,,0.01,,2013-03-18 02:52:00,
2013-03-17 23:03:00,62.0,58.0,30.06,NW,313,0.0,0.0,86,0.00,,,0.01,,2013-03-18 03:03:00,
2013-03-17 23:12:00,62.0,58.0,30.06,NW,313,0.0,0.0,86,0.00,,,0.01,,2013-03-18 03:12:00,
2013-03-17 23:22:00,62.0,58.0,30.07,NW,313,0.0,1.0,87,0.00,,,0.01,,2013-03-18 03:22:00,
2013-03-17 23:33:00,62.0,58.0,30.07,NW,313,0.0,0.0,88,0.00,,,0.01,,2013-03-18 03:33:00,
2013-03-17 23:42:00,62.0,58.0,30.07,NW,313,0.0,0.0,88,0.00,,,0.01,,2013-03-18 03:42:00,
2013-03-17 23:53:00,61.0,58.0,30.08,NW,313,0.0,0.0,89,0.00,,,0.01,,2013-03-18 03:53:00,